Villa Krause, Argentina
Current Conditions -  °F | °C
As of 6:00 AM on Thursday 18 Dec 2014 (Local Time) from SAME Reporting Station
Thunderstorm Thunderstorm  
Wind Chill: 72°   Ceiling: 4000
Heat Index: 72°   Visibility: 6mi
Dew Point: 48°   Wind: 6mph
Humidity: 43%   Direction: 180°S
Pressure: 29.97"   Gusts: NA
Location:  31.57°S, 68.53°W
Report Text: SAME 180900Z 18005KT 9999 VCTS BKN040 FEW045CB 22/09 Q1015
Loading
Personal Weather Stations






























Interactive Weather Map New forecast layout! Learn more

10-Day Weather Forecast

Advertisements
Track Severe Weather on mobile